createdAt,value
2023-01-18T00:01:29.147Z,62.20
2023-01-18T00:03:59.078Z,62.30
2023-01-18T00:06:27.863Z,62.30
2023-01-18T00:08:55.854Z,62.30
2023-01-18T00:11:22.786Z,62.40
2023-01-18T00:13:50.973Z,62.40
2023-01-18T00:16:21.555Z,62.50
2023-01-18T00:19:00.421Z,62.50
2023-01-18T00:21:32.261Z,62.50
2023-01-18T00:23:59.102Z,62.50
2023-01-18T00:26:26.731Z,62.50
2023-01-18T00:28:57.244Z,62.50
2023-01-18T00:31:24.240Z,62.40
2023-01-18T00:33:56.615Z,62.50
2023-01-18T00:36:23.585Z,62.50
2023-01-18T00:38:51.880Z,62.50
2023-01-18T00:41:19.928Z,62.50
2023-01-18T00:43:47.176Z,62.50
2023-01-18T00:46:20.054Z,62.40
2023-01-18T00:48:47.080Z,62.40
2023-01-18T00:51:22.204Z,62.50
2023-01-18T00:53:49.723Z,62.50
2023-01-18T00:56:21.970Z,62.60
2023-01-18T00:58:51.769Z,62.70
2023-01-18T01:01:21.837Z,62.80
2023-01-18T01:04:07.252Z,62.80
2023-01-18T01:06:47.088Z,62.80
2023-01-18T01:09:27.535Z,62.80
2023-01-18T01:12:15.959Z,63.20
2023-01-18T01:15:05.031Z,62.70
2023-01-18T01:17:54.434Z,62.70
2023-01-18T01:20:41.460Z,62.70
2023-01-18T01:23:33.487Z,62.60
2023-01-18T01:26:19.632Z,62.60
2023-01-18T01:28:52.418Z,62.60
2023-01-18T01:31:20.601Z,62.50
2023-01-18T01:33:50.801Z,62.50
2023-01-18T01:36:21.915Z,63.40
2023-01-18T01:38:49.037Z,62.70
2023-01-18T01:41:28.985Z,62.70
2023-01-18T01:44:00.902Z,62.80
2023-01-18T01:46:54.397Z,62.80
2023-01-18T01:49:32.287Z,62.90
2023-01-18T01:52:09.835Z,62.80
2023-01-18T01:55:01.691Z,62.70
2023-01-18T01:57:47.989Z,62.90
2023-01-18T02:00:20.868Z,62.60
2023-01-18T02:03:02.046Z,62.50
2023-01-18T02:05:31.383Z,62.50
2023-01-18T02:08:03.326Z,62.30
2023-01-18T02:10:30.766Z,62.40
2023-01-18T02:12:58.807Z,62.30
2023-01-18T02:15:41.273Z,62.40
2023-01-18T02:18:35.300Z,62.30
2023-01-18T02:21:36.909Z,62.20
2023-01-18T02:24:46.099Z,62.20
2023-01-18T02:27:26.239Z,62.20
2023-01-18T02:30:05.413Z,62.20
2023-01-18T02:32:44.521Z,62.20
2023-01-18T02:35:52.022Z,62.20
2023-01-18T02:38:44.424Z,62.20
2023-01-18T02:41:57.611Z,62.20
2023-01-18T02:44:50.523Z,62.10
2023-01-18T02:47:21.201Z,62.10
2023-01-18T02:49:48.076Z,62.10
2023-01-18T02:52:43.225Z,62.10
2023-01-18T02:55:34.037Z,62.00
2023-01-18T02:58:34.117Z,62.10
2023-01-18T03:01:26.839Z,62.10
2023-01-18T03:04:04.114Z,62.00
2023-01-18T03:06:33.961Z,62.00
2023-01-18T03:09:01.870Z,62.80
2023-01-18T03:11:52.614Z,61.90
2023-01-18T03:14:50.117Z,61.90
2023-01-18T03:17:36.215Z,61.90
2023-01-18T03:20:10.387Z,61.90
2023-01-18T03:23:01.875Z,61.90
2023-01-18T03:25:35.284Z,61.90
2023-01-18T03:28:27.631Z,61.80
2023-01-18T03:31:22.452Z,62.50
2023-01-18T03:33:57.259Z,61.80
2023-01-18T03:36:32.140Z,62.60
2023-01-18T03:39:07.473Z,61.90
2023-01-18T03:41:40.746Z,61.80
2023-01-18T03:44:38.437Z,61.80
2023-01-18T03:47:08.901Z,61.80
2023-01-18T03:49:36.539Z,61.80
2023-01-18T03:52:08.980Z,61.80
2023-01-18T03:54:55.967Z,61.80
2023-01-18T03:57:50.369Z,62.00
2023-01-18T04:00:20.719Z,61.90
2023-01-18T04:02:49.610Z,61.80
2023-01-18T04:05:17.960Z,61.80
2023-01-18T04:07:49.344Z,61.80
2023-01-18T04:10:18.982Z,61.80
2023-01-18T04:12:48.330Z,61.70
2023-01-18T04:15:15.389Z,61.70
2023-01-18T04:17:44.962Z,61.80
2023-01-18T04:20:12.349Z,61.80
2023-01-18T04:22:39.179Z,61.80
2023-01-18T04:25:09.048Z,61.70
2023-01-18T04:27:35.909Z,61.50
2023-01-18T04:30:03.020Z,61.60
2023-01-18T04:32:32.723Z,61.50
2023-01-18T04:34:59.658Z,61.50
2023-01-18T04:37:31.008Z,61.50
2023-01-18T04:39:58.249Z,61.50
2023-01-18T04:42:27.679Z,61.60
2023-01-18T04:44:54.617Z,61.50
2023-01-18T04:47:21.749Z,61.50
2023-01-18T04:49:48.715Z,61.70
2023-01-18T04:52:15.668Z,61.70
2023-01-18T04:54:43.640Z,61.70
2023-01-18T04:57:10.495Z,61.90
2023-01-18T04:59:45.836Z,62.00
2023-01-18T05:02:17.585Z,62.10
2023-01-18T05:04:51.486Z,62.00
2023-01-18T05:07:18.331Z,62.00
2023-01-18T05:09:49.768Z,61.90
2023-01-18T05:12:21.260Z,61.90
2023-01-18T05:14:48.133Z,61.90
2023-01-18T05:17:15.147Z,62.00
2023-01-18T05:19:42.033Z,62.00
2023-01-18T05:22:10.998Z,62.00
2023-01-18T05:24:37.845Z,62.10
2023-01-18T05:27:04.893Z,62.00
2023-01-18T05:29:31.905Z,62.00
2023-01-18T05:32:03.840Z,62.10
2023-01-18T05:34:33.293Z,62.10
2023-01-18T05:37:04.587Z,62.10
2023-01-18T05:39:31.665Z,62.10
2023-01-18T05:42:01.056Z,62.00
2023-01-18T05:44:30.516Z,62.00
2023-01-18T05:46:59.059Z,62.00
2023-01-18T05:49:28.905Z,62.00
2023-01-18T05:51:55.866Z,62.00
2023-01-18T05:54:22.899Z,62.00
2023-01-18T05:56:49.843Z,62.90
2023-01-18T05:59:21.383Z,62.10
2023-01-18T06:01:50.463Z,62.10
2023-01-18T06:04:17.565Z,62.20
2023-01-18T06:06:46.524Z,62.20
2023-01-18T06:09:15.967Z,62.10
2023-01-18T06:11:42.846Z,62.10
2023-01-18T06:14:11.896Z,62.20
2023-01-18T06:16:38.928Z,62.20
2023-01-18T06:19:05.936Z,62.20
2023-01-18T06:21:35.141Z,62.10
2023-01-18T06:24:05.060Z,62.10
2023-01-18T06:26:34.746Z,62.00
2023-01-18T06:29:03.954Z,61.90
2023-01-18T06:31:30.975Z,61.90
2023-01-18T06:34:00.459Z,61.90
2023-01-18T06:36:28.084Z,61.90
2023-01-18T06:38:54.944Z,61.80
2023-01-18T06:41:23.904Z,61.70
2023-01-18T06:43:50.825Z,61.70
2023-01-18T06:46:19.536Z,61.70
2023-01-18T06:48:48.861Z,61.80
2023-01-18T06:51:15.770Z,61.80
2023-01-18T06:53:45.104Z,61.70
2023-01-18T06:56:14.416Z,61.60
2023-01-18T06:58:41.467Z,61.60
2023-01-18T07:01:11.429Z,61.60
2023-01-18T07:03:40.692Z,61.60
2023-01-18T07:06:09.880Z,61.50
2023-01-18T07:08:40.176Z,61.50
2023-01-18T07:11:12.806Z,61.60
2023-01-18T07:13:43.681Z,61.60
2023-01-18T07:16:21.056Z,61.60
2023-01-18T07:18:50.340Z,61.70
2023-01-18T07:21:19.539Z,61.60
2023-01-18T07:23:46.402Z,61.60
2023-01-18T07:26:17.299Z,61.60
2023-01-18T07:28:45.585Z,61.50
2023-01-18T07:31:13.268Z,61.60
2023-01-18T07:33:42.496Z,61.60
2023-01-18T07:36:10.917Z,61.60
2023-01-18T07:38:38.983Z,61.50
2023-01-18T07:41:16.651Z,61.60
2023-01-18T07:43:47.176Z,61.50
2023-01-18T07:46:21.139Z,61.60
2023-01-18T07:48:51.032Z,61.60
2023-01-18T07:51:18.794Z,61.50
2023-01-18T07:53:50.696Z,61.50
2023-01-18T07:56:20.507Z,61.50
2023-01-18T07:58:49.688Z,61.50
2023-01-18T08:01:21.983Z,61.50
2023-01-18T08:03:50.171Z,61.50
2023-01-18T08:06:24.727Z,61.50
2023-01-18T08:08:52.287Z,61.40
2023-01-18T08:11:26.790Z,61.40
2023-01-18T08:13:53.891Z,61.30
2023-01-18T08:16:24.404Z,61.30
2023-01-18T08:18:53.917Z,61.20
2023-01-18T08:21:25.577Z,61.10
2023-01-18T08:23:57.597Z,61.90
2023-01-18T08:26:24.538Z,61.00
2023-01-18T08:28:53.777Z,61.00
2023-01-18T08:31:26.660Z,61.00
2023-01-18T08:33:54.070Z,61.00
2023-01-18T08:36:25.591Z,60.90
2023-01-18T08:38:56.851Z,60.80
2023-01-18T08:41:30.513Z,60.60
2023-01-18T08:44:02.183Z,60.90
2023-01-18T08:46:31.629Z,60.70
2023-01-18T08:49:05.703Z,60.60
2023-01-18T08:51:35.297Z,60.40
2023-01-18T08:54:06.504Z,60.40
2023-01-18T08:56:33.999Z,60.30
2023-01-18T08:59:03.685Z,60.30
2023-01-18T09:01:33.179Z,60.20
2023-01-18T09:04:00.179Z,60.00
2023-01-18T09:06:32.315Z,60.00
2023-01-18T09:09:00.336Z,60.00
2023-01-18T09:11:27.284Z,59.90
2023-01-18T09:14:00.934Z,59.70
2023-01-18T09:16:32.333Z,59.60
2023-01-18T09:19:00.405Z,59.50
2023-01-18T09:21:30.364Z,59.50
2023-01-18T09:24:00.056Z,59.40
2023-01-18T09:26:28.069Z,59.40
2023-01-18T09:28:55.276Z,59.40
2023-01-18T09:31:26.027Z,59.30
2023-01-18T09:33:54.250Z,59.30
2023-01-18T09:36:27.144Z,59.30
2023-01-18T09:39:01.721Z,59.30
2023-01-18T09:41:52.377Z,59.20
2023-01-18T09:44:30.104Z,59.10
2023-01-18T09:47:26.702Z,59.10
2023-01-18T09:50:25.173Z,59.00
2023-01-18T09:53:35.572Z,59.00
2023-01-18T09:56:27.872Z,59.00
2023-01-18T09:59:33.568Z,58.80
2023-01-18T10:02:24.690Z,58.90
2023-01-18T10:05:10.003Z,59.40
2023-01-18T10:08:02.429Z,58.80
2023-01-18T10:10:44.086Z,58.90
2023-01-18T10:13:42.107Z,58.70
2023-01-18T10:16:14.899Z,58.50
2023-01-18T10:18:48.269Z,58.80
2023-01-18T10:21:37.351Z,58.70
2023-01-18T10:24:20.049Z,58.60
2023-01-18T10:26:51.950Z,58.70
2023-01-18T10:29:50.574Z,58.60
2023-01-18T10:32:23.588Z,58.20
2023-01-18T10:34:52.065Z,58.40
2023-01-18T10:37:40.333Z,58.40
2023-01-18T10:40:10.418Z,58.20
2023-01-18T10:42:46.245Z,58.20
2023-01-18T10:45:35.186Z,58.00
2023-01-18T10:48:20.753Z,57.20
2023-01-18T10:50:53.527Z,57.40
2023-01-18T10:53:31.502Z,58.50
2023-01-18T10:56:04.786Z,57.60
2023-01-18T10:59:00.078Z,57.80
2023-01-18T11:01:30.848Z,57.50
2023-01-18T11:04:09.202Z,57.80
2023-01-18T11:06:48.137Z,57.70
2023-01-18T11:09:56.006Z,57.40
2023-01-18T11:12:43.143Z,57.20
2023-01-18T11:15:15.786Z,57.40
2023-01-18T11:17:56.030Z,57.20
2023-01-18T11:20:33.998Z,57.20
2023-01-18T11:23:07.424Z,57.20
2023-01-18T11:25:40.235Z,56.90
2023-01-18T11:28:21.841Z,56.80
2023-01-18T11:31:10.774Z,56.50
2023-01-18T11:33:58.778Z,56.50
2023-01-18T11:36:40.875Z,56.60
2023-01-18T11:39:40.399Z,56.50
2023-01-18T11:42:35.272Z,56.00
2023-01-18T11:45:36.114Z,56.00
2023-01-18T11:48:35.960Z,56.00
2023-01-18T11:51:29.959Z,56.50
2023-01-18T11:54:09.809Z,56.20
2023-01-18T11:56:49.263Z,56.20
2023-01-18T11:59:36.701Z,56.40
2023-01-18T12:02:46.172Z,56.40
2023-01-18T12:05:33.734Z,56.30
2023-01-18T12:08:18.299Z,56.40
2023-01-18T12:11:03.511Z,56.40
2023-01-18T12:13:42.587Z,56.90
2023-01-18T12:16:28.369Z,56.30
2023-01-18T12:19:23.274Z,56.30
2023-01-18T12:22:32.175Z,56.40
2023-01-18T12:25:31.617Z,56.50
2023-01-18T12:28:42.549Z,56.40
2023-01-18T12:32:00.143Z,56.40
2023-01-18T12:34:54.912Z,56.40
2023-01-18T12:38:02.747Z,56.60
2023-01-18T12:40:40.513Z,56.40
2023-01-18T12:43:10.459Z,56.40
2023-01-18T12:45:42.123Z,56.50
2023-01-18T12:48:26.873Z,56.50
2023-01-18T12:50:57.328Z,56.10
2023-01-18T12:53:45.759Z,56.30
2023-01-18T12:56:33.083Z,56.20
2023-01-18T12:59:06.129Z,56.10
2023-01-18T13:01:46.631Z,56.40
2023-01-18T13:04:24.250Z,56.40
2023-01-18T13:06:57.816Z,56.30
2023-01-18T13:09:33.283Z,56.30
2023-01-18T13:12:05.847Z,56.40
2023-01-18T13:14:54.968Z,56.30
2023-01-18T13:17:40.368Z,56.00
2023-01-18T13:20:19.484Z,56.00
2023-01-18T13:23:06.861Z,56.00
2023-01-18T13:25:55.310Z,55.90
2023-01-18T13:28:28.270Z,55.90
2023-01-18T13:31:01.899Z,55.80
2023-01-18T13:33:39.232Z,55.80
2023-01-18T13:36:14.227Z,55.70
2023-01-18T13:38:57.511Z,55.80
2023-01-18T13:41:29.441Z,55.80
2023-01-18T13:44:02.964Z,55.90
2023-01-18T13:46:36.689Z,55.90
2023-01-18T13:49:38.655Z,55.90
2023-01-18T13:52:35.452Z,55.50
2023-01-18T13:55:25.746Z,55.70
2023-01-18T13:57:56.454Z,55.90
2023-01-18T14:00:25.821Z,55.80
2023-01-18T14:03:06.025Z,55.80
2023-01-18T14:05:42.709Z,55.80
2023-01-18T14:08:22.709Z,55.60
2023-01-18T14:10:56.300Z,55.60
2023-01-18T14:13:46.558Z,55.70
2023-01-18T14:16:41.219Z,55.50
2023-01-18T14:19:20.740Z,55.40
2023-01-18T14:22:10.549Z,56.30
2023-01-18T14:24:49.990Z,55.50
2023-01-18T14:27:33.278Z,55.70
2023-01-18T14:30:25.683Z,55.50
2023-01-18T14:33:15.677Z,55.50
2023-01-18T14:36:01.146Z,55.40
2023-01-18T14:38:31.444Z,55.30
2023-01-18T14:41:06.483Z,55.50
2023-01-18T14:43:42.757Z,55.30
2023-01-18T14:46:21.824Z,55.40
2023-01-18T14:48:56.148Z,55.30
2023-01-18T14:51:25.996Z,55.30
2023-01-18T14:53:59.169Z,55.30
2023-01-18T14:56:31.936Z,55.20
2023-01-18T14:59:03.034Z,55.30
2023-01-18T15:01:40.520Z,55.30
2023-01-18T15:04:33.107Z,55.30
2023-01-18T15:07:10.279Z,55.70
2023-01-18T15:09:42.300Z,55.20
2023-01-18T15:12:14.093Z,55.30
2023-01-18T15:14:48.946Z,55.30
2023-01-18T15:17:24.967Z,55.30
2023-01-18T15:19:56.371Z,55.40
2023-01-18T15:22:30.572Z,55.50
2023-01-18T15:24:59.850Z,55.50
2023-01-18T15:27:32.366Z,55.40
2023-01-18T15:30:08.294Z,55.30
2023-01-18T15:32:36.656Z,55.30
2023-01-18T15:35:04.566Z,55.40
2023-01-18T15:37:37.729Z,55.40
2023-01-18T15:40:13.746Z,55.30
2023-01-18T15:43:08.978Z,55.20
2023-01-18T15:45:49.408Z,55.30
2023-01-18T15:48:22.771Z,55.40
2023-01-18T15:51:05.757Z,55.40
2023-01-18T15:53:45.906Z,55.20
2023-01-18T15:56:26.223Z,55.40
2023-01-18T15:58:59.026Z,55.30
2023-01-18T16:01:36.183Z,55.40
2023-01-18T16:04:20.796Z,55.30
2023-01-18T16:06:52.454Z,55.30
2023-01-18T16:09:21.906Z,55.40
2023-01-18T16:11:54.483Z,55.30
2023-01-18T16:14:38.368Z,55.30
2023-01-18T16:17:20.749Z,55.30
2023-01-18T16:19:50.237Z,55.20
2023-01-18T16:22:31.983Z,55.30
2023-01-18T16:25:04.528Z,55.20
2023-01-18T16:27:32.543Z,55.20
2023-01-18T16:30:18.024Z,55.50
2023-01-18T16:32:45.034Z,55.50
2023-01-18T16:35:23.688Z,55.50
2023-01-18T16:37:57.741Z,55.40
2023-01-18T16:40:27.098Z,55.50
2023-01-18T16:43:04.767Z,55.60
2023-01-18T16:45:40.474Z,55.70
2023-01-18T16:48:21.923Z,55.80
2023-01-18T16:50:52.497Z,55.90
2023-01-18T16:53:22.162Z,56.00
2023-01-18T16:55:51.391Z,56.00
2023-01-18T16:58:21.640Z,56.00
2023-01-18T17:01:01.108Z,56.00
2023-01-18T17:03:31.045Z,55.90
2023-01-18T17:06:00.520Z,55.90
2023-01-18T17:08:27.598Z,55.90
2023-01-18T17:10:57.101Z,56.00
2023-01-18T17:13:27.083Z,56.00
2023-01-18T17:15:57.100Z,56.00
2023-01-18T17:18:25.942Z,56.10
2023-01-18T17:20:54.314Z,56.20
2023-01-18T17:23:22.042Z,56.20
2023-01-18T17:25:48.965Z,56.10
2023-01-18T17:28:19.565Z,56.20
2023-01-18T17:30:51.316Z,56.20
2023-01-18T17:33:24.284Z,56.30
2023-01-18T17:35:54.269Z,56.40
2023-01-18T17:38:25.131Z,56.30
2023-01-18T17:40:53.646Z,56.40
2023-01-18T17:43:33.281Z,56.40
2023-01-18T17:46:07.005Z,56.40
2023-01-18T17:48:36.836Z,56.40
2023-01-18T17:51:11.668Z,56.40
2023-01-18T17:53:40.906Z,56.50
2023-01-18T17:56:14.113Z,56.50
2023-01-18T17:58:47.809Z,56.60
2023-01-18T18:01:16.895Z,56.60
2023-01-18T18:03:52.934Z,56.60
2023-01-18T18:06:31.590Z,56.60
2023-01-18T18:08:59.932Z,56.70
2023-01-18T18:11:27.533Z,57.40
2023-01-18T18:13:58.823Z,56.70
2023-01-18T18:16:25.984Z,56.70
2023-01-18T18:18:53.385Z,56.70
2023-01-18T18:21:23.083Z,56.70
2023-01-18T18:23:50.616Z,56.70
2023-01-18T18:26:23.163Z,56.70
2023-01-18T18:28:50.055Z,57.40
2023-01-18T18:31:21.678Z,56.80
2023-01-18T18:33:51.000Z,56.80
2023-01-18T18:36:21.786Z,56.80
2023-01-18T18:38:51.183Z,56.90
2023-01-18T18:41:18.141Z,56.90
2023-01-18T18:43:44.971Z,56.90
2023-01-18T18:46:16.474Z,56.90
2023-01-18T18:48:43.495Z,56.80
2023-01-18T18:51:15.693Z,56.70
2023-01-18T18:53:47.173Z,56.80
2023-01-18T18:56:20.387Z,56.80
2023-01-18T18:58:50.291Z,56.70
2023-01-18T19:01:30.870Z,56.70
2023-01-18T19:03:59.131Z,56.60
2023-01-18T19:06:28.917Z,56.60
2023-01-18T19:08:57.237Z,56.60
2023-01-18T19:11:25.624Z,56.60
2023-01-18T19:13:59.055Z,56.60
2023-01-18T19:16:31.600Z,56.60
2023-01-18T19:19:04.899Z,56.70
2023-01-18T19:21:32.610Z,56.70
2023-01-18T19:24:01.778Z,56.70
2023-01-18T19:26:30.855Z,56.70
2023-01-18T19:29:00.597Z,56.70
2023-01-18T19:31:33.281Z,56.60
2023-01-18T19:34:01.926Z,56.60
2023-01-18T19:36:28.937Z,56.60
2023-01-18T19:38:59.772Z,56.60
2023-01-18T19:41:27.741Z,56.60
2023-01-18T19:43:54.941Z,56.50
2023-01-18T19:46:22.356Z,56.50
2023-01-18T19:48:49.303Z,56.50
2023-01-18T19:51:22.687Z,56.50
2023-01-18T19:53:55.048Z,56.50
2023-01-18T19:56:22.694Z,56.50
2023-01-18T19:58:51.878Z,56.60
2023-01-18T20:01:35.276Z,56.70
2023-01-18T20:04:09.934Z,56.60
2023-01-18T20:06:39.896Z,56.70
2023-01-18T20:09:18.628Z,56.70
2023-01-18T20:11:49.550Z,56.70
2023-01-18T20:14:18.463Z,56.70
2023-01-18T20:16:51.079Z,56.70
2023-01-18T20:19:19.163Z,56.70
2023-01-18T20:21:48.931Z,56.60
2023-01-18T20:24:18.134Z,56.60
2023-01-18T20:26:45.138Z,56.70
2023-01-18T20:29:13.210Z,56.70
2023-01-18T20:31:41.999Z,56.70
2023-01-18T20:34:10.269Z,56.70
2023-01-18T20:36:37.478Z,56.70
2023-01-18T20:39:05.483Z,56.80
2023-01-18T20:41:32.614Z,56.80
2023-01-18T20:44:00.035Z,56.90
2023-01-18T20:46:30.968Z,57.00
2023-01-18T20:48:58.510Z,57.40
2023-01-18T20:51:25.464Z,57.10
2023-01-18T20:53:52.419Z,57.10
2023-01-18T20:56:30.128Z,57.10
2023-01-18T20:59:00.277Z,57.20
2023-01-18T21:01:32.504Z,57.20
2023-01-18T21:04:09.630Z,57.20
2023-01-18T21:06:36.669Z,57.10
2023-01-18T21:09:07.090Z,57.10
2023-01-18T21:11:37.831Z,57.10
2023-01-18T21:14:05.440Z,57.10
2023-01-18T21:16:35.005Z,57.10
2023-01-18T21:19:07.681Z,57.20
2023-01-18T21:21:34.647Z,57.30
2023-01-18T21:24:03.214Z,57.20
2023-01-18T21:26:30.350Z,57.20
2023-01-18T21:28:57.294Z,57.20
2023-01-18T21:31:24.558Z,57.20
2023-01-18T21:33:51.793Z,57.20
2023-01-18T21:36:20.048Z,57.10
2023-01-18T21:38:47.216Z,57.20
2023-01-18T21:41:32.896Z,57.20
2023-01-18T21:44:21.013Z,57.10
2023-01-18T21:46:51.065Z,57.10
2023-01-18T21:52:47.869Z,57.10
2023-01-18T21:55:18.915Z,57.10
2023-01-18T21:58:11.195Z,57.10
2023-01-18T22:00:39.946Z,56.80
2023-01-18T22:03:09.507Z,57.10
2023-01-18T22:05:36.451Z,57.20
2023-01-18T22:08:04.770Z,57.20
2023-01-18T22:10:31.735Z,57.30
2023-01-18T22:12:58.756Z,57.30
2023-01-18T22:15:28.838Z,57.20
2023-01-18T22:17:58.371Z,57.20
2023-01-18T22:20:25.873Z,57.20
2023-01-18T22:22:52.723Z,57.20
2023-01-18T22:25:19.646Z,57.20
2023-01-18T22:27:49.093Z,57.20
2023-01-18T22:30:16.919Z,57.30
2023-01-18T22:32:44.253Z,57.30
2023-01-18T22:35:13.270Z,57.20
2023-01-18T22:37:41.411Z,57.30
2023-01-18T22:40:09.412Z,57.30
2023-01-18T22:42:38.934Z,57.30
2023-01-18T22:45:07.800Z,57.20
2023-01-18T22:47:36.902Z,57.20
2023-01-18T22:50:04.185Z,57.20
2023-01-18T22:52:33.579Z,57.30
2023-01-18T22:55:00.861Z,57.20
2023-01-18T22:57:27.888Z,57.30
2023-01-18T22:59:57.371Z,57.30
2023-01-18T23:02:24.277Z,57.40
2023-01-18T23:04:54.406Z,57.50
2023-01-18T23:07:21.431Z,57.60
2023-01-18T23:09:50.616Z,57.60
2023-01-18T23:12:18.241Z,57.60
2023-01-18T23:15:03.513Z,57.60
2023-01-18T23:17:39.431Z,57.60
2023-01-18T23:20:10.560Z,57.60
2023-01-18T23:22:37.803Z,57.60
2023-01-18T23:25:07.401Z,57.70
2023-01-18T23:27:36.934Z,57.70
2023-01-18T23:30:05.766Z,57.70
2023-01-18T23:32:36.048Z,57.70
2023-01-18T23:35:05.167Z,57.70
2023-01-18T23:37:32.257Z,57.70
2023-01-18T23:40:17.819Z,57.60
2023-01-18T23:43:03.555Z,57.60
2023-01-18T23:45:49.410Z,57.60
2023-01-18T23:48:38.546Z,57.60
2023-01-18T23:51:27.046Z,57.50
2023-01-18T23:54:15.560Z,57.50
2023-01-18T23:56:49.906Z,57.60
2023-01-18T23:59:19.404Z,57.60
